Time;durP1;ratioP1;P1;durP2;ratioP2;P2;SDS_P1;SDS_P2;PMS_P1;PMS_P2;Temp;Humidity;BMP_temperature;BMP_pressure;BME280_temperature;BME280_humidity;BME280_pressure;Samples;Min_cycle;Max_cycle;Signal;HPM_P1;HPM_P2
2021/08/06 00:01:30;;;;;;;0.38;0.30;;;18.30;92.10;;;;;;5016440;28;20068;-88
2021/08/06 00:03:56;;;;;;;1.13;0.30;;;18.30;92.10;;;;;;5016561;28;20034;-84
2021/08/06 00:06:27;;;;;;;0.88;0.32;;;18.30;92.10;;;;;;5016714;28;20022;-84
2021/08/06 00:08:56;;;;;;;1.23;0.40;;;18.20;92.00;;;;;;5017047;28;20352;-84
2021/08/06 00:11:28;;;;;;;0.50;0.35;;;18.30;92.10;;;;;;5017774;28;20046;-84
2021/08/06 00:13:54;;;;;;;0.70;0.30;;;18.30;92.10;;;;;;5016730;28;20037;-83
2021/08/06 00:16:20;;;;;;;1.20;0.52;;;18.20;92.40;;;;;;5016388;28;20022;-84
2021/08/06 00:18:46;;;;;;;1.67;0.40;;;18.20;92.10;;;;;;5015952;28;20045;-85
2021/08/06 00:21:11;;;;;;;1.83;0.50;;;18.20;92.10;;;;;;5017350;28;20081;-83
2021/08/06 00:23:37;;;;;;;1.00;0.40;;;18.20;92.20;;;;;;5016418;28;20022;-83
2021/08/06 00:26:03;;;;;;;1.05;0.40;;;18.20;92.10;;;;;;5016144;28;20025;-82
2021/08/06 00:28:29;;;;;;;2.85;0.50;;;18.10;92.20;;;;;;5016602;28;20018;-85
2021/08/06 00:30:54;;;;;;;1.50;0.50;;;18.20;92.00;;;;;;5016784;28;20482;-86
2021/08/06 00:33:20;;;;;;;1.02;0.50;;;18.20;92.00;;;;;;5016292;28;20033;-86
2021/08/06 00:35:45;;;;;;;0.95;0.40;;;18.10;91.90;;;;;;5015610;28;20285;-86
2021/08/06 00:38:11;;;;;;;0.57;0.30;;;18.10;92.00;;;;;;5015711;28;20038;-85
2021/08/06 00:40:37;;;;;;;0.50;0.30;;;18.10;92.00;;;;;;5016609;28;20093;-85
2021/08/06 00:43:03;;;;;;;1.80;0.38;;;18.10;92.00;;;;;;5015856;28;20374;-84
2021/08/06 00:45:28;;;;;;;0.70;0.40;;;18.10;92.00;;;;;;5015587;28;20030;-85
2021/08/06 00:47:54;;;;;;;0.90;0.40;;;18.10;91.90;;;;;;5015840;28;20088;-83
2021/08/06 00:50:20;;;;;;;3.15;0.60;;;18.10;91.90;;;;;;5015758;28;20022;-83
2021/08/06 00:52:46;;;;;;;1.15;0.40;;;18.10;91.90;;;;;;5015357;28;20069;-84
2021/08/06 00:55:12;;;;;;;0.57;0.40;;;18.10;91.90;;;;;;5015424;28;20026;-84
2021/08/06 00:57:37;;;;;;;1.85;0.40;;;18.00;91.90;;;;;;5015112;28;20018;-84
2021/08/06 01:00:04;;;;;;;1.23;0.93;;;18.00;91.90;;;;;;5015874;28;20025;-83
2021/08/06 01:02:45;;;;;;;0.25;0.20;;;18.00;92.00;;;;;;5015133;28;20112;-84
2021/08/06 01:05:19;;;;;;;0.93;0.30;;;18.00;92.00;;;;;;5016509;28;20032;-84
2021/08/06 01:08:04;;;;;;;0.60;0.43;;;18.00;91.90;;;;;;5015142;28;20026;-84
2021/08/06 01:10:57;;;;;;;1.02;0.50;;;18.00;91.90;;;;;;5014837;28;20481;-85
2021/08/06 01:13:32;;;;;;;0.47;0.40;;;18.00;91.90;;;;;;5015377;28;20132;-84
2021/08/06 01:16:05;;;;;;;2.45;0.40;;;18.00;92.00;;;;;;5015541;28;20082;-84
2021/08/06 01:18:33;;;;;;;2.20;0.40;;;18.00;92.10;;;;;;5016099;28;20435;-84
2021/08/06 01:21:05;;;;;;;0.40;0.30;;;17.90;92.20;;;;;;5015464;28;20022;-84
2021/08/06 01:23:35;;;;;;;0.70;0.50;;;17.90;92.40;;;;;;5017338;28;20125;-84
2021/08/06 01:26:05;;;;;;;0.50;0.50;;;17.80;92.50;;;;;;5019487;28;20105;-83
2021/08/06 01:28:34;;;;;;;1.15;0.65;;;17.80;92.60;;;;;;5017332;28;20050;-84
2021/08/06 01:31:01;;;;;;;0.63;0.50;;;17.90;92.50;;;;;;5016982;28;20090;-86
2021/08/06 01:33:27;;;;;;;0.45;0.40;;;17.90;92.60;;;;;;5016568;28;20120;-87
2021/08/06 01:35:52;;;;;;;0.77;0.52;;;17.90;92.50;;;;;;5015434;28;20060;-83
2021/08/06 01:38:18;;;;;;;0.45;0.40;;;17.90;92.50;;;;;;5019411;28;20121;-86
2021/08/06 01:40:56;;;;;;;0.80;0.55;;;17.90;92.50;;;;;;5034594;28;20030;-88
2021/08/06 01:43:29;;;;;;;1.33;0.60;;;18.00;92.50;;;;;;5017561;28;20084;-88
2021/08/06 01:46:07;;;;;;;1.20;0.47;;;18.00;92.40;;;;;;5015721;28;20026;-88
2021/08/06 01:48:37;;;;;;;0.80;0.43;;;18.00;92.40;;;;;;5015191;28;20486;-88
2021/08/06 01:51:08;;;;;;;1.58;0.90;;;18.00;92.40;;;;;;5015303;28;20025;-88
2021/08/06 01:53:44;;;;;;;0.80;0.70;;;17.90;92.30;;;;;;5015096;28;20030;-88
2021/08/06 01:56:12;;;;;;;0.70;0.60;;;18.00;92.10;;;;;;5014854;28;20050;-88
2021/08/06 01:58:39;;;;;;;1.42;0.43;;;18.00;92.20;;;;;;5014056;28;20025;-88
2021/08/06 02:01:05;;;;;;;0.80;0.47;;;18.00;92.10;;;;;;5014753;28;20529;-87
2021/08/06 02:03:31;;;;;;;0.77;0.40;;;18.00;92.00;;;;;;5014106;28;20049;-89
2021/08/06 02:05:57;;;;;;;2.00;0.70;;;18.10;91.90;;;;;;5014358;28;20037;-88
2021/08/06 02:08:23;;;;;;;1.33;0.40;;;18.00;92.00;;;;;;5014447;28;20028;-88
2021/08/06 02:10:49;;;;;;;0.60;0.50;;;18.00;92.10;;;;;;5014841;28;20014;-87
2021/08/06 02:13:15;;;;;;;1.42;0.40;;;18.00;92.10;;;;;;5031073;28;20057;-88
2021/08/06 02:15:45;;;;;;;1.38;0.55;;;18.00;92.20;;;;;;5014889;28;20057;-87
2021/08/06 02:18:11;;;;;;;1.25;0.50;;;18.00;92.20;;;;;;5013871;28;20018;-87
2021/08/06 02:20:38;;;;;;;0.88;0.50;;;18.00;92.20;;;;;;5013188;28;20033;-88
2021/08/06 02:23:06;;;;;;;1.33;0.50;;;18.00;92.30;;;;;;5013550;28;20413;-84
2021/08/06 02:25:33;;;;;;;0.40;0.32;;;18.00;92.40;;;;;;5014918;28;20022;-84
2021/08/06 02:28:00;;;;;;;1.35;0.50;;;18.00;92.50;;;;;;5013994;28;20029;-85
2021/08/06 02:30:26;;;;;;;1.95;0.50;;;18.00;92.50;;;;;;5013965;28;20022;-83
2021/08/06 02:32:52;;;;;;;1.25;0.57;;;18.00;92.50;;;;;;5013491;28;20025;-83
2021/08/06 02:35:18;;;;;;;1.67;0.50;;;18.00;92.50;;;;;;5030508;28;20034;-83
2021/08/06 02:37:46;;;;;;;0.80;0.50;;;18.00;92.50;;;;;;5012935;28;20037;-84
2021/08/06 02:40:12;;;;;;;0.90;0.60;;;18.00;92.40;;;;;;5014046;28;20045;-85
2021/08/06 02:42:38;;;;;;;0.80;0.50;;;18.10;92.30;;;;;;5013454;28;20443;-85
2021/08/06 02:45:05;;;;;;;2.60;0.50;;;18.10;92.10;;;;;;5014881;28;20026;-85
2021/08/06 02:47:31;;;;;;;0.75;0.50;;;18.10;91.90;;;;;;5030253;28;20030;-84
2021/08/06 02:49:56;;;;;;;0.70;0.57;;;18.10;91.70;;;;;;5013109;28;20034;-84
2021/08/06 02:52:22;;;;;;;0.82;0.70;;;18.20;91.50;;;;;;5030202;28;20025;-86
2021/08/06 02:54:48;;;;;;;1.90;0.68;;;18.20;91.30;;;;;;5029601;28;20026;-86
2021/08/06 02:57:13;;;;;;;2.75;1.02;;;18.30;91.30;;;;;;5013812;28;20067;-86
2021/08/06 02:59:39;;;;;;;1.88;0.82;;;18.20;91.20;;;;;;5013349;28;20049;-86
2021/08/06 03:02:04;;;;;;;1.05;0.90;;;18.20;91.40;;;;;;5013364;28;20080;-86
2021/08/06 03:04:30;;;;;;;1.58;0.60;;;18.20;91.20;;;;;;5029632;28;20113;-84
2021/08/06 03:06:56;;;;;;;1.50;0.63;;;18.20;91.20;;;;;;5012783;28;20356;-84
2021/08/06 03:09:21;;;;;;;1.27;0.70;;;18.20;91.20;;;;;;5013004;28;20021;-84
2021/08/06 03:11:47;;;;;;;2.30;0.70;;;18.30;91.10;;;;;;5012677;28;20018;-84
2021/08/06 03:14:13;;;;;;;1.08;0.70;;;18.30;91.20;;;;;;5013737;28;20474;-84
2021/08/06 03:16:38;;;;;;;1.17;0.68;;;18.30;91.10;;;;;;5012625;28;20022;-85
2021/08/06 03:19:04;;;;;;;0.70;0.60;;;18.30;91.20;;;;;;5013471;28;20502;-85
2021/08/06 03:21:30;;;;;;;0.90;0.60;;;18.20;91.40;;;;;;5014148;28;20511;-84
2021/08/06 03:23:55;;;;;;;0.55;0.50;;;18.20;91.40;;;;;;5012788;28;20222;-84
2021/08/06 03:26:21;;;;;;;2.83;0.63;;;18.20;91.30;;;;;;5014237;28;20026;-85
2021/08/06 03:28:47;;;;;;;2.65;0.80;;;18.20;91.40;;;;;;5012979;28;20021;-85
2021/08/06 03:31:12;;;;;;;1.15;0.60;;;18.20;91.50;;;;;;5014124;28;20125;-85
2021/08/06 03:33:38;;;;;;;1.02;0.90;;;18.20;91.60;;;;;;5015687;28;20053;-85
2021/08/06 03:36:04;;;;;;;4.05;0.98;;;18.30;91.40;;;;;;5017166;28;20482;-85
2021/08/06 03:38:29;;;;;;;1.50;0.80;;;18.30;91.30;;;;;;5033905;28;20049;-85
2021/08/06 03:40:55;;;;;;;0.95;0.80;;;18.30;91.30;;;;;;5016830;28;20073;-83
2021/08/06 03:43:21;;;;;;;0.85;0.63;;;18.30;91.30;;;;;;5018291;28;20022;-84
2021/08/06 03:45:47;;;;;;;1.98;0.93;;;18.30;91.40;;;;;;5016576;28;20029;-84
2021/08/06 03:48:12;;;;;;;1.08;0.70;;;18.40;91.40;;;;;;5016927;28;20022;-84
2021/08/06 03:50:38;;;;;;;3.00;1.10;;;18.40;91.70;;;;;;5016710;28;20033;-87
2021/08/06 03:53:04;;;;;;;1.70;0.88;;;18.30;91.70;;;;;;5017008;28;20107;-83
2021/08/06 03:55:30;;;;;;;1.52;0.93;;;18.30;91.90;;;;;;5017137;28;20026;-86
2021/08/06 03:57:58;;;;;;;2.22;0.80;;;18.30;92.10;;;;;;5033048;28;20026;-86
2021/08/06 04:00:25;;;;;;;1.50;1.10;;;18.30;92.20;;;;;;5016929;28;20026;-86
2021/08/06 04:02:51;;;;;;;1.35;1.05;;;18.30;92.60;;;;;;5016544;28;20032;-86
2021/08/06 04:05:17;;;;;;;2.78;1.00;;;18.20;92.80;;;;;;5016511;28;20053;-86
2021/08/06 04:07:44;;;;;;;1.83;1.00;;;18.30;92.90;;;;;;5016356;28;20456;-86
2021/08/06 04:10:12;;;;;;;2.22;0.90;;;18.20;93.10;;;;;;5016750;28;20022;-86
2021/08/06 04:12:37;;;;;;;3.10;0.95;;;18.20;93.40;;;;;;5016536;28;20076;-86
2021/08/06 04:15:04;;;;;;;6.03;0.90;;;18.20;93.60;;;;;;5016230;28;20455;-86
2021/08/06 04:17:30;;;;;;;1.65;0.90;;;18.10;93.70;;;;;;5017356;28;20018;-86
2021/08/06 04:19:55;;;;;;;1.55;0.80;;;18.10;94.00;;;;;;5016148;28;20044;-85
2021/08/06 04:22:21;;;;;;;1.20;0.90;;;18.00;94.00;;;;;;5016571;28;20455;-86
2021/08/06 04:24:46;;;;;;;0.82;0.82;;;17.90;94.20;;;;;;5015652;28;20033;-85
2021/08/06 04:27:12;;;;;;;0.95;0.85;;;17.90;94.20;;;;;;5032881;28;20375;-84
2021/08/06 04:29:37;;;;;;;3.72;1.00;;;17.90;94.20;;;;;;5032758;28;20026;-85
2021/08/06 04:32:03;;;;;;;2.60;1.15;;;17.90;94.40;;;;;;5015557;28;20025;-84
2021/08/06 04:34:29;;;;;;;1.58;0.90;;;17.80;94.40;;;;;;5032522;28;20522;-83
2021/08/06 04:36:55;;;;;;;2.63;0.98;;;17.80;94.60;;;;;;5015515;28;20478;-84
2021/08/06 04:39:21;;;;;;;2.03;1.00;;;17.80;94.70;;;;;;5032798;28;20026;-84
2021/08/06 04:41:49;;;;;;;2.30;1.00;;;17.70;94.90;;;;;;5031904;28;20036;-84
2021/08/06 04:44:15;;;;;;;1.90;0.90;;;17.70;94.90;;;;;;5015229;28;20026;-86
2021/08/06 04:46:41;;;;;;;1.13;1.02;;;17.70;95.30;;;;;;5015504;28;20030;-89
2021/08/06 04:49:07;;;;;;;3.00;1.00;;;17.70;95.10;;;;;;5016198;28;20026;-86
2021/08/06 04:51:32;;;;;;;1.30;0.75;;;17.80;95.00;;;;;;5032213;28;20053;-85
2021/08/06 04:53:58;;;;;;;3.05;1.10;;;17.70;95.00;;;;;;5014583;28;20026;-85
2021/08/06 04:56:24;;;;;;;1.67;1.05;;;17.70;95.10;;;;;;5015790;28;20025;-85
2021/08/06 04:58:49;;;;;;;1.50;1.05;;;17.70;95.10;;;;;;5016217;28;20429;-85
2021/08/06 05:01:15;;;;;;;2.25;1.30;;;17.70;95.20;;;;;;5016627;28;20033;-85
2021/08/06 05:03:40;;;;;;;1.92;0.90;;;17.70;95.30;;;;;;5016599;28;20034;-85
2021/08/06 05:06:06;;;;;;;1.65;1.00;;;17.70;95.20;;;;;;5031375;28;20113;-85
2021/08/06 05:08:32;;;;;;;2.45;0.95;;;17.70;95.20;;;;;;5015128;28;20060;-85
2021/08/06 05:10:57;;;;;;;1.75;1.20;;;17.70;95.20;;;;;;5014884;28;20025;-85
2021/08/06 05:13:23;;;;;;;1.88;0.95;;;17.70;95.20;;;;;;5015479;28;20018;-85
2021/08/06 05:15:49;;;;;;;1.35;0.80;;;17.70;95.20;;;;;;5015077;28;20021;-83
2021/08/06 05:18:14;;;;;;;1.98;1.10;;;17.60;95.20;;;;;;5014989;28;20036;-83
2021/08/06 05:20:40;;;;;;;1.40;1.20;;;17.60;95.30;;;;;;5015178;28;20351;-83
2021/08/06 05:23:06;;;;;;;2.35;0.90;;;17.60;95.30;;;;;;5014306;28;20036;-83
2021/08/06 05:25:32;;;;;;;1.30;1.05;;;17.70;95.30;;;;;;5014989;28;20057;-83
2021/08/06 05:27:57;;;;;;;1.85;0.80;;;17.70;95.30;;;;;;5014604;28;20021;-87
2021/08/06 05:30:23;;;;;;;3.15;1.10;;;17.70;95.30;;;;;;5015429;28;20022;-86
2021/08/06 05:32:49;;;;;;;1.70;1.10;;;17.80;95.40;;;;;;5015713;28;20466;-86
2021/08/06 05:35:16;;;;;;;2.65;1.02;;;17.70;95.50;;;;;;5015088;28;20029;-86
2021/08/06 05:37:42;;;;;;;4.15;1.23;;;17.80;95.40;;;;;;5015977;28;20050;-86
2021/08/06 05:40:08;;;;;;;3.05;1.17;;;17.80;95.40;;;;;;5014605;28;20025;-86
2021/08/06 05:42:34;;;;;;;2.25;1.10;;;17.90;95.40;;;;;;5014638;28;20025;-85
2021/08/06 05:45:00;;;;;;;3.33;1.08;;;17.90;95.40;;;;;;5014284;28;20032;-86
2021/08/06 05:47:25;;;;;;;1.50;1.10;;;17.90;95.50;;;;;;5014789;28;20068;-85
2021/08/06 05:49:52;;;;;;;2.72;1.10;;;17.90;95.30;;;;;;5014432;28;20029;-85
2021/08/06 05:52:18;;;;;;;3.42;1.17;;;17.90;95.30;;;;;;5006384;28;20085;-85
2021/08/06 05:54:44;;;;;;;0.82;0.70;;;17.90;95.30;;;;;;5011389;28;20022;-86
2021/08/06 05:57:11;;;;;;;1.33;0.90;;;18.00;95.10;;;;;;4993864;28;20026;-86
2021/08/06 05:59:36;;;;;;;3.40;1.42;;;18.10;95.20;;;;;;4994967;28;20072;-86
2021/08/06 06:02:02;;;;;;;1.95;1.23;;;18.10;95.00;;;;;;5010690;28;20113;-83
2021/08/06 06:04:28;;;;;;;3.05;1.00;;;18.20;94.90;;;;;;4994449;28;20026;-82
2021/08/06 06:06:53;;;;;;;1.05;0.90;;;18.20;94.80;;;;;;4994031;28;20030;-84
2021/08/06 06:09:19;;;;;;;1.92;1.10;;;18.30;94.80;;;;;;5003090;28;20343;-86
2021/08/06 06:11:45;;;;;;;2.13;0.98;;;18.40;94.70;;;;;;5030503;28;20026;-84
2021/08/06 06:14:14;;;;;;;2.60;1.10;;;18.40;94.70;;;;;;5013373;28;20037;-85
2021/08/06 06:16:40;;;;;;;3.10;1.20;;;18.40;95.00;;;;;;5013438;28;20093;-84
2021/08/06 06:19:05;;;;;;;3.38;1.20;;;18.40;95.00;;;;;;5030368;28;20064;-85
2021/08/06 06:21:31;;;;;;;2.55;1.20;;;18.30;95.00;;;;;;5014330;28;20026;-85
2021/08/06 06:23:57;;;;;;;2.17;1.00;;;18.30;95.10;;;;;;5013211;28;20029;-85
2021/08/06 06:26:22;;;;;;;2.83;0.82;;;18.20;95.20;;;;;;5013808;28;20026;-85
2021/08/06 06:28:48;;;;;;;0.77;0.70;;;18.20;95.40;;;;;;5014177;28;20084;-90
2021/08/06 06:31:14;;;;;;;2.22;1.20;;;18.20;95.50;;;;;;5012822;28;20533;-84
2021/08/06 06:33:39;;;;;;;2.30;1.00;;;18.20;95.50;;;;;;5014012;28;20038;-87
2021/08/06 06:36:05;;;;;;;1.65;0.90;;;18.20;95.40;;;;;;5012967;28;20116;-86
2021/08/06 06:38:31;;;;;;;2.80;0.90;;;18.20;95.50;;;;;;5013431;28;20026;-85
2021/08/06 06:40:56;;;;;;;3.22;1.00;;;18.20;95.40;;;;;;5013474;28;20121;-85
2021/08/06 06:43:22;;;;;;;0.73;0.65;;;18.20;95.40;;;;;;5013443;28;20459;-84
2021/08/06 06:45:48;;;;;;;1.58;0.80;;;18.10;95.20;;;;;;5029970;28;20091;-89
2021/08/06 06:48:14;;;;;;;1.02;0.70;;;18.20;95.30;;;;;;5013516;28;20022;-84
2021/08/06 06:50:40;;;;;;;4.93;0.60;;;18.20;95.20;;;;;;5029969;28;20516;-83
2021/08/06 06:53:05;;;;;;;0.85;0.60;;;18.10;95.40;;;;;;5013018;28;20026;-84
2021/08/06 06:55:31;;;;;;;1.30;0.63;;;18.10;95.60;;;;;;5013704;28;20028;-84
2021/08/06 06:57:57;;;;;;;0.88;0.52;;;18.10;95.30;;;;;;5012731;28;20029;-84
2021/08/06 07:00:26;;;;;;;2.83;1.00;;;18.00;95.50;;;;;;5013306;28;20025;-84
2021/08/06 07:02:52;;;;;;;1.42;0.70;;;18.10;95.40;;;;;;5013113;28;20459;-85
2021/08/06 07:05:19;;;;;;;1.58;0.70;;;18.10;95.50;;;;;;5013687;28;20348;-85
2021/08/06 07:07:45;;;;;;;2.75;0.60;;;18.10;95.40;;;;;;5012745;28;20538;-87
2021/08/06 07:10:11;;;;;;;0.55;0.47;;;18.20;95.50;;;;;;5012873;28;20025;-89
2021/08/06 07:12:39;;;;;;;0.70;0.63;;;18.20;95.40;;;;;;5014415;28;20025;-87
2021/08/06 07:15:06;;;;;;;1.10;0.80;;;18.30;95.30;;;;;;5012762;28;20076;-87
2021/08/06 07:17:33;;;;;;;0.70;0.70;;;18.40;95.20;;;;;;5025118;28;20029;-87
2021/08/06 07:19:59;;;;;;;0.98;0.60;;;18.30;95.40;;;;;;5012922;28;20113;-87
2021/08/06 07:22:25;;;;;;;1.48;0.68;;;18.30;95.20;;;;;;5013097;28;20085;-87
2021/08/06 07:24:50;;;;;;;0.73;0.60;;;18.40;95.30;;;;;;5013025;28;20093;-91
2021/08/06 07:27:17;;;;;;;0.70;0.60;;;18.40;95.10;;;;;;5013026;28;20042;-87
2021/08/06 07:29:42;;;;;;;3.53;0.70;;;18.50;95.30;;;;;;5013340;28;20375;-87
2021/08/06 07:32:08;;;;;;;2.50;0.75;;;18.50;95.10;;;;;;5012483;28;20033;-87
2021/08/06 07:34:34;;;;;;;2.00;0.80;;;18.60;95.00;;;;;;5014239;28;20030;-87
2021/08/06 07:36:59;;;;;;;1.50;0.93;;;18.60;94.90;;;;;;5012074;28;20058;-86
2021/08/06 07:39:25;;;;;;;1.50;0.70;;;18.70;95.00;;;;;;5012856;28;20064;-86
2021/08/06 07:41:51;;;;;;;1.42;0.68;;;18.70;95.00;;;;;;5013558;28;20060;-85
2021/08/06 07:44:17;;;;;;;1.25;0.70;;;18.70;94.70;;;;;;5029092;28;20037;-86
2021/08/06 07:46:43;;;;;;;0.77;0.60;;;18.70;94.60;;;;;;5013453;28;20030;-84
2021/08/06 07:49:08;;;;;;;1.13;0.80;;;18.80;94.60;;;;;;5012445;28;20026;-82
2021/08/06 07:51:36;;;;;;;2.17;0.85;;;18.90;94.30;;;;;;5012589;28;20037;-84
2021/08/06 07:54:02;;;;;;;2.55;0.80;;;18.90;94.10;;;;;;5005385;28;20026;-85
2021/08/06 07:56:28;;;;;;;0.90;0.65;;;18.80;93.80;;;;;;5004818;28;20451;-85
2021/08/06 07:58:54;;;;;;;1.38;0.70;;;18.80;93.90;;;;;;5012930;28;20076;-86
2021/08/06 08:01:19;;;;;;;2.13;0.70;;;18.90;94.00;;;;;;5004274;28;20132;-84
2021/08/06 08:03:45;;;;;;;1.75;0.70;;;19.00;93.80;;;;;;5013010;28;20029;-83
2021/08/06 08:06:12;;;;;;;1.30;0.77;;;19.00;93.20;;;;;;5015318;28;20451;-83
2021/08/06 08:08:38;;;;;;;0.70;0.70;;;19.10;93.30;;;;;;5018805;28;20018;-84
2021/08/06 08:11:03;;;;;;;6.05;0.90;;;19.10;93.40;;;;;;5018848;28;20032;-87
2021/08/06 08:13:29;;;;;;;1.63;0.70;;;19.10;93.10;;;;;;5029641;28;20019;-88
2021/08/06 08:15:55;;;;;;;2.20;0.90;;;19.20;93.20;;;;;;5018320;28;20028;-85
2021/08/06 08:18:20;;;;;;;1.67;0.77;;;19.20;93.50;;;;;;5017312;28;20027;-84
2021/08/06 08:20:47;;;;;;;0.88;0.60;;;19.20;93.30;;;;;;5018792;28;20033;-87
2021/08/06 08:23:14;;;;;;;1.27;0.60;;;19.10;93.20;;;;;;5018208;28;20032;-86
2021/08/06 08:25:40;;;;;;;1.17;0.80;;;19.10;93.20;;;;;;5015391;28;20507;-84
2021/08/06 08:28:06;;;;;;;4.50;0.70;;;18.90;93.10;;;;;;5017151;28;20030;-85
2021/08/06 08:30:32;;;;;;;0.98;0.50;;;18.90;93.30;;;;;;5018271;28;20083;-84
2021/08/06 08:32:57;;;;;;;1.70;0.50;;;18.90;93.40;;;;;;5032939;28;20105;-84
2021/08/06 08:35:23;;;;;;;2.55;0.70;;;19.00;93.40;;;;;;5017775;28;20475;-86
2021/08/06 08:37:52;;;;;;;1.27;0.70;;;19.00;93.50;;;;;;5018684;28;20372;-86
2021/08/06 08:40:17;;;;;;;2.85;0.55;;;19.00;92.90;;;;;;5017454;28;20026;-86
2021/08/06 08:42:46;;;;;;;0.80;0.50;;;19.10;92.90;;;;;;5015982;28;20375;-86
2021/08/06 08:45:13;;;;;;;1.05;0.50;;;19.20;92.60;;;;;;5015386;28;20475;-87
2021/08/06 08:47:43;;;;;;;0.68;0.50;;;19.40;92.90;;;;;;5015190;28;20029;-86
2021/08/06 08:50:10;;;;;;;2.05;0.80;;;19.50;92.70;;;;;;5014983;28;20024;-87
2021/08/06 08:52:35;;;;;;;0.95;0.40;;;19.70;92.40;;;;;;5015414;28;20018;-84
2021/08/06 08:55:02;;;;;;;2.15;0.50;;;19.80;91.60;;;;;;5014468;28;20372;-86
2021/08/06 08:57:27;;;;;;;1.48;0.60;;;19.80;91.30;;;;;;5015368;28;20542;-81
2021/08/06 08:59:55;;;;;;;2.40;0.63;;;19.70;91.10;;;;;;5015109;28;20112;-82
2021/08/06 09:02:21;;;;;;;1.92;0.68;;;19.60;91.70;;;;;;5013822;28;20029;-82
2021/08/06 09:04:48;;;;;;;3.63;0.85;;;19.50;92.50;;;;;;5006180;28;20026;-79
2021/08/06 09:07:31;;;;;;;1.90;0.52;;;19.40;92.90;;;;;;5013822;28;20079;-82
2021/08/06 09:10:16;;;;;;;2.80;0.52;;;19.30;93.10;;;;;;5011798;28;20414;-86
2021/08/06 09:12:51;;;;;;;1.25;0.70;;;19.40;92.90;;;;;;5004692;28;20105;-84
2021/08/06 09:15:38;;;;;;;3.13;0.68;;;19.50;92.80;;;;;;5011034;28;20029;-83
2021/08/06 09:18:17;;;;;;;1.52;0.80;;;19.70;92.50;;;;;;4999100;28;20061;-83
2021/08/06 09:20:43;;;;;;;1.95;0.75;;;19.80;92.60;;;;;;5011894;28;20030;-82
2021/08/06 09:23:08;;;;;;;1.42;0.80;;;19.80;92.70;;;;;;5009719;28;20121;-89
2021/08/06 09:25:38;;;;;;;1.58;0.70;;;20.00;92.30;;;;;;5013382;28;20455;-83
2021/08/06 09:28:04;;;;;;;1.30;0.60;;;20.10;91.90;;;;;;5013855;28;20037;-79
2021/08/06 09:30:39;;;;;;;1.00;0.55;;;20.10;91.10;;;;;;5006030;28;20029;-80
2021/08/06 09:33:08;;;;;;;1.08;0.52;;;20.10;90.50;;;;;;5013548;28;20018;-86
2021/08/06 09:35:35;;;;;;;2.45;0.65;;;20.20;90.60;;;;;;5011862;28;20414;-83
2021/08/06 09:38:02;;;;;;;0.93;0.60;;;20.30;91.10;;;;;;5009575;28;20132;-85
2021/08/06 09:40:35;;;;;;;2.05;0.65;;;20.30;91.10;;;;;;5013812;28;20029;-84
2021/08/06 09:43:05;;;;;;;1.52;0.80;;;20.10;90.30;;;;;;5013201;28;20018;-85
2021/08/06 09:45:39;;;;;;;4.28;0.70;;;20.00;91.20;;;;;;5013389;28;20053;-80
2021/08/06 09:48:05;;;;;;;2.95;0.73;;;20.10;90.90;;;;;;5026469;28;20030;-82
2021/08/06 09:50:40;;;;;;;2.35;0.63;;;20.30;89.40;;;;;;5013626;28;20032;-82
2021/08/06 09:53:07;;;;;;;1.00;0.60;;;20.40;88.30;;;;;;5012782;28;20022;-80
2021/08/06 09:55:35;;;;;;;2.97;0.50;;;20.50;87.40;;;;;;5012589;28;20522;-81
2021/08/06 09:58:03;;;;;;;1.42;0.43;;;20.50;86.10;;;;;;5004151;28;20065;-82
2021/08/06 10:00:29;;;;;;;1.40;0.45;;;20.60;85.30;;;;;;5005559;28;20022;-80
2021/08/06 10:02:56;;;;;;;1.48;0.70;;;20.60;83.20;;;;;;5013932;28;20444;-77
2021/08/06 10:05:28;;;;;;;2.17;0.50;;;20.60;83.70;;;;;;5009491;28;20032;-80
2021/08/06 10:07:55;;;;;;;;;;;20.70;84.00;;;;;;5013354;28;20097;-78
2021/08/06 10:10:29;;;;;;;1.05;0.45;;;20.70;82.00;;;;;;5010615;28;19936;-80
2021/08/06 10:12:56;;;;;;;1.73;0.43;;;20.70;81.60;;;;;;5013051;28;20032;-82
2021/08/06 10:15:23;;;;;;;2.28;0.40;;;20.60;82.30;;;;;;5013149;28;20029;-79
2021/08/06 10:17:50;;;;;;;2.47;0.40;;;20.70;81.80;;;;;;5013354;28;20405;-80
2021/08/06 10:20:20;;;;;;;0.50;0.32;;;20.70;82.10;;;;;;5012686;28;20026;-78
2021/08/06 10:22:47;;;;;;;1.50;0.40;;;20.70;81.00;;;;;;5009794;28;20033;-80
2021/08/06 10:25:15;;;;;;;1.02;0.43;;;20.50;80.20;;;;;;5009626;28;20113;-81
2021/08/06 10:27:43;;;;;;;2.35;0.30;;;20.30;80.90;;;;;;4995025;28;20041;-79
2021/08/06 10:30:25;;;;;;;1.38;0.30;;;20.30;81.70;;;;;;5012229;28;20029;-83
2021/08/06 10:33:12;;;;;;;1.48;0.52;;;20.40;81.30;;;;;;5023442;28;20169;-83
2021/08/06 10:35:45;;;;;;;1.63;0.30;;;20.60;81.10;;;;;;5029558;28;20025;-85
2021/08/06 10:38:11;;;;;;;1.98;0.35;;;20.70;80.40;;;;;;5024237;28;20088;-80
2021/08/06 10:40:40;;;;;;;2.05;0.30;;;20.90;81.40;;;;;;5000805;28;20045;-82
2021/08/06 10:43:08;;;;;;;0.90;0.30;;;20.80;80.00;;;;;;5010890;28;20018;-80
2021/08/06 10:45:54;;;;;;;1.20;0.50;;;20.70;81.20;;;;;;5002610;28;20018;-80
2021/08/06 10:48:33;;;;;;;1.45;0.30;;;20.70;82.10;;;;;;4998490;28;20038;-77
2021/08/06 10:51:17;;;;;;;0.90;0.30;;;20.80;82.70;;;;;;5006374;28;20021;-80
2021/08/06 10:53:48;;;;;;;0.65;0.32;;;20.60;78.80;;;;;;5004020;28;20032;-81
2021/08/06 10:56:17;;;;;;;2.33;0.43;;;20.70;82.50;;;;;;5011710;28;20108;-80
2021/08/06 10:58:59;;;;;;;0.93;0.30;;;20.80;81.50;;;;;;5012013;28;20060;-82
2021/08/06 11:01:31;;;;;;;2.03;0.40;;;20.90;81.00;;;;;;5011467;28;20026;-83
2021/08/06 11:04:16;;;;;;;2.58;0.30;;;20.70;80.70;;;;;;5012095;28;20113;-81
2021/08/06 11:06:45;;;;;;;0.35;0.22;;;20.60;81.50;;;;;;5024828;28;20057;-81
2021/08/06 11:09:31;;;;;;;0.95;0.35;;;20.60;81.00;;;;;;5020888;28;20025;-81
2021/08/06 11:12:03;;;;;;;1.38;0.40;;;20.70;81.70;;;;;;5009049;28;20423;-81
2021/08/06 11:14:28;;;;;;;1.00;0.20;;;20.80;81.30;;;;;;5012089;28;20474;-79
2021/08/06 11:17:09;;;;;;;3.60;0.35;;;20.90;80.40;;;;;;5011738;28;20030;-81
2021/08/06 11:19:35;;;;;;;1.17;0.30;;;21.10;80.30;;;;;;5011765;28;20120;-81
2021/08/06 11:22:20;;;;;;;1.63;0.43;;;21.20;79.70;;;;;;5012013;28;20217;-80
2021/08/06 11:24:50;;;;;;;1.02;0.30;;;21.30;79.60;;;;;;5011502;28;20510;-82
2021/08/06 11:27:18;;;;;;;1.45;0.30;;;21.30;78.40;;;;;;5012804;28;20181;-82
2021/08/06 11:29:57;;;;;;;2.80;0.88;;;21.50;78.40;;;;;;5011668;28;20144;-78
2021/08/06 11:32:23;;;;;;;2.25;0.43;;;21.60;79.70;;;;;;5010736;28;20522;-79
2021/08/06 11:34:58;;;;;;;1.00;0.28;;;21.60;79.40;;;;;;4999870;28;20031;-79
2021/08/06 11:37:52;;;;;;;1.45;0.40;;;21.50;76.40;;;;;;5008890;28;20038;-81
2021/08/06 11:40:20;;;;;;;1.08;0.30;;;21.50;75.00;;;;;;4998553;28;20381;-79
2021/08/06 11:42:47;;;;;;;1.15;0.20;;;21.50;75.90;;;;;;5012368;28;20033;-80
2021/08/06 11:45:15;;;;;;;3.10;0.30;;;21.70;76.80;;;;;;5010947;28;20041;-81
2021/08/06 11:47:47;;;;;;;0.70;0.30;;;21.90;74.10;;;;;;5011908;28;20036;-81
2021/08/06 11:50:40;;;;;;;0.63;0.20;;;22.20;72.80;;;;;;5011132;28;20524;-80
2021/08/06 11:53:24;;;;;;;1.55;0.30;;;22.30;72.80;;;;;;5010754;28;20038;-78
2021/08/06 11:55:55;;;;;;;0.60;0.30;;;22.30;69.80;;;;;;5014940;28;20087;-87
2021/08/06 11:58:33;;;;;;;0.98;0.30;;;22.50;71.00;;;;;;5012012;28;20022;-79
2021/08/06 12:00:59;;;;;;;1.35;0.20;;;22.50;70.50;;;;;;5015462;28;20025;-79
2021/08/06 12:03:25;;;;;;;0.63;0.30;;;22.60;70.50;;;;;;5014677;28;20103;-84
2021/08/06 12:06:00;;;;;;;1.33;0.30;;;22.70;70.50;;;;;;5015012;28;20069;-79
2021/08/06 12:08:33;;;;;;;1.48;0.30;;;22.50;70.50;;;;;;5016207;28;20025;-83
2021/08/06 12:11:04;;;;;;;0.45;0.13;;;22.40;70.90;;;;;;5015495;28;20184;-83
2021/08/06 12:13:31;;;;;;;0.95;0.30;;;22.20;71.10;;;;;;5015264;28;20030;-83
2021/08/06 12:16:12;;;;;;;0.75;0.25;;;22.10;71.00;;;;;;5015124;28;20034;-84
2021/08/06 12:18:44;;;;;;;1.43;0.30;;;22.10;71.20;;;;;;5016083;28;20037;-82
2021/08/06 12:21:26;;;;;;;1.17;0.30;;;22.10;70.70;;;;;;5015391;28;20374;-85
2021/08/06 12:24:06;;;;;;;0.47;0.30;;;22.20;71.00;;;;;;5013047;28;20459;-86
2021/08/06 12:26:35;;;;;;;0.82;0.30;;;22.00;72.20;;;;;;5021603;28;20037;-81
2021/08/06 12:29:09;;;;;;;1.55;0.30;;;22.20;72.00;;;;;;5032529;28;20451;-85
2021/08/06 12:31:55;;;;;;;2.65;0.40;;;22.40;71.60;;;;;;5015692;28;20025;-85
2021/08/06 12:34:30;;;;;;;1.98;0.30;;;22.40;70.60;;;;;;5015165;28;20079;-82
2021/08/06 12:36:58;;;;;;;1.58;0.40;;;22.30;71.00;;;;;;5006468;28;20050;-85
2021/08/06 12:39:25;;;;;;;1.30;0.40;;;22.30;71.90;;;;;;5024619;28;20054;-81
2021/08/06 12:41:51;;;;;;;1.73;0.40;;;22.30;72.30;;;;;;5015951;28;20443;-82
2021/08/06 12:44:25;;;;;;;0.30;0.20;;;22.50;73.80;;;;;;5014809;28;20026;-82
2021/08/06 12:47:07;;;;;;;3.50;0.60;;;22.70;70.70;;;;;;5014955;28;20033;-83
2021/08/06 12:49:56;;;;;;;0.98;0.20;;;22.90;69.60;;;;;;5015619;28;20030;-82
2021/08/06 12:52:24;;;;;;;1.75;0.47;;;23.10;68.10;;;;;;5014675;28;20471;-84
2021/08/06 12:54:57;;;;;;;0.40;0.30;;;23.10;68.30;;;;;;5015818;28;20061;-81